Time;durP1;ratioP1;P1;durP2;ratioP2;P2;SDS_P1;SDS_P2;PMS_P1;PMS_P2;Temp;Humidity;BMP_temperature;BMP_pressure;BME280_temperature;BME280_humidity;BME280_pressure;Samples;Min_cycle;Max_cycle;Signal;HPM_P1;HPM_P2
2021/12/25 00:00:19;;;;;;;5.72;2.80;;;;;;;;;;5064051;28;20113;-61
2021/12/25 00:02:48;;;;;;;5.47;3.30;;;;;;;;;;5056635;28;20079;-61
2021/12/25 00:05:15;;;;;;;9.85;2.65;;;;;;;;;;5056838;28;20588;-61
2021/12/25 00:07:41;;;;;;;7.15;3.05;;;;;;;;;;5060168;28;20049;-61
2021/12/25 00:10:08;;;;;;;11.23;3.10;;;;;;;;;;5062570;28;20053;-61
2021/12/25 00:12:35;;;;;;;8.05;2.95;;;;;;;;;;5055704;28;20087;-61
2021/12/25 00:15:01;;;;;;;4.78;2.63;;;;;;;;;;5061988;28;20172;-61
2021/12/25 00:17:28;;;;;;;5.20;2.40;;;;;;;;;;5059692;28;20418;-61
2021/12/25 00:19:54;;;;;;;3.13;2.30;;;;;;;;;;5063687;28;20083;-61
2021/12/25 00:22:21;;;;;;;4.68;2.30;;;;;;;;;;5059046;28;20052;-61
2021/12/25 00:24:54;;;;;;;7.37;3.37;;;;;;;;;;5063675;28;20127;-61
2021/12/25 00:34:59;;;;;;;6.83;4.00;;;;;;;;;;5061775;28;20080;-61
2021/12/25 00:37:26;;;;;;;7.18;3.42;;;;;;;;;;5059065;28;20160;-61
2021/12/25 00:39:54;;;;;;;8.87;3.70;;;;;;;;;;5057819;28;20047;-61
2021/12/25 00:42:23;;;;;;;10.63;2.80;;;;;;;;;;5057572;28;20049;-61
2021/12/25 00:44:49;;;;;;;6.93;3.58;;;;;;;;;;5062689;28;20080;-61
2021/12/25 00:47:17;;;;;;;6.37;2.57;;;;;;;;;;5064541;28;20049;-61
2021/12/25 00:49:44;;;;;;;4.45;2.28;;;;;;;;;;5056617;28;20133;-61
2021/12/25 00:52:10;;;;;;;;;;;;;;;;;;5056647;28;20076;-61
2021/12/25 00:54:36;;;;;;;5.50;2.27;;;;;;;;;;5060164;28;20032;-61
2021/12/25 00:57:03;;;;;;;6.80;2.45;;;;;;;;;;5060204;28;20129;-61
2021/12/25 00:59:29;;;;;;;4.10;2.42;;;;;;;;;;5059604;28;20051;-61
2021/12/25 01:01:58;;;;;;;6.07;2.72;;;;;;;;;;5055612;28;20401;-61
2021/12/25 01:04:25;;;;;;;4.93;2.40;;;;;;;;;;5059257;28;20053;-61
2021/12/25 01:06:51;;;;;;;;;;;;;;;;;;5059489;28;20429;-61
2021/12/25 01:09:25;;;;;;;4.00;2.37;;;;;;;;;;5057763;28;19967;-61
2021/12/25 01:11:52;;;;;;;5.55;2.22;;;;;;;;;;5059953;28;20135;-61
2021/12/25 01:14:34;;;;;;;3.80;2.37;;;;;;;;;;5060664;28;20136;-61
2021/12/25 01:17:25;;;;;;;4.93;2.37;;;;;;;;;;5059995;28;20427;-61
2021/12/25 01:20:16;;;;;;;3.73;2.30;;;;;;;;;;5058619;28;20483;-61
2021/12/25 01:25:35;;;;;;;4.57;2.10;;;;;;;;;;5058330;28;20132;-60
2021/12/25 01:41:29;;;;;;;4.13;2.33;;;;;;;;;;5037901;28;20147;-61
2021/12/25 01:49:28;;;;;;;3.10;2.27;;;;;;;;;;5061152;28;20080;-61
2021/12/25 01:51:54;;;;;;;3.30;2.03;;;;;;;;;;5061933;28;20052;-60
2021/12/25 01:54:20;;;;;;;14.35;2.47;;;;;;;;;;5060368;28;20095;-61
2021/12/25 01:56:48;;;;;;;6.18;2.75;;;;;;;;;;5058486;28;20140;-61
2021/12/25 01:59:15;;;;;;;4.80;2.63;;;;;;;;;;5057796;28;20568;-61
2021/12/25 02:01:42;;;;;;;;;;;;;;;;;;5064982;28;20051;-61
2021/12/25 02:04:09;;;;;;;8.07;3.17;;;;;;;;;;5060100;28;19920;-61
2021/12/25 02:06:42;;;;;;;8.40;3.37;;;;;;;;;;5058106;28;20141;-61
2021/12/25 02:09:08;;;;;;;7.05;2.95;;;;;;;;;;5056810;28;20135;-61
2021/12/25 02:11:35;;;;;;;4.90;2.10;;;;;;;;;;5057629;28;20072;-61
2021/12/25 02:14:03;;;;;;;6.17;3.00;;;;;;;;;;5053947;28;20095;-61
2021/12/25 02:16:39;;;;;;;4.10;2.38;;;;;;;;;;5058686;28;20139;-61
2021/12/25 02:19:14;;;;;;;5.07;2.20;;;;;;;;;;5055958;28;20567;-61
2021/12/25 02:21:41;;;;;;;5.50;2.20;;;;;;;;;;5055448;28;20416;-61
2021/12/25 02:24:10;;;;;;;4.35;2.33;;;;;;;;;;5061251;28;20060;-61
2021/12/25 02:26:37;;;;;;;5.00;2.00;;;;;;;;;;5059331;28;20055;-61
2021/12/25 02:29:04;;;;;;;9.43;3.10;;;;;;;;;;5057418;28;20487;-61
2021/12/25 02:31:37;;;;;;;4.13;2.20;;;;;;;;;;5060570;28;20558;-61
2021/12/25 02:34:03;;;;;;;3.83;2.38;;;;;;;;;;5060937;28;20080;-61
2021/12/25 02:36:30;;;;;;;3.75;2.30;;;;;;;;;;5061699;28;20137;-61
2021/12/25 02:39:00;;;;;;;2.50;1.70;;;;;;;;;;5064115;28;20055;-61
2021/12/25 02:41:26;;;;;;;4.53;1.90;;;;;;;;;;5058389;28;20132;-61
2021/12/25 02:43:53;;;;;;;2.17;1.58;;;;;;;;;;5061315;28;20131;-61
2021/12/25 02:46:22;;;;;;;4.77;2.20;;;;;;;;;;5060343;28;20135;-61
2021/12/25 02:48:48;;;;;;;3.97;2.10;;;;;;;;;;5066084;28;20214;-61
2021/12/25 02:51:15;;;;;;;3.20;2.03;;;;;;;;;;5062988;28;20128;-61
2021/12/25 02:53:42;;;;;;;3.83;2.17;;;;;;;;;;5082751;28;20102;-61
2021/12/25 02:56:08;;;;;;;4.07;1.92;;;;;;;;;;5082925;28;20194;-61
2021/12/25 02:58:35;;;;;;;4.90;2.05;;;;;;;;;;5080331;28;20163;-61
2021/12/25 03:01:10;;;;;;;4.07;2.00;;;;;;;;;;5061098;28;20132;-61
2021/12/25 03:03:37;;;;;;;3.93;2.13;;;;;;;;;;5063450;28;20484;-61
2021/12/25 03:06:04;;;;;;;3.85;1.95;;;;;;;;;;5058449;28;20139;-61
2021/12/25 03:08:31;;;;;;;4.00;2.23;;;;;;;;;;5063620;28;20131;-61
2021/12/25 03:10:59;;;;;;;6.32;1.92;;;;;;;;;;5063600;28;20051;-61
2021/12/25 03:15:58;;;;;;;7.83;1.90;;;;;;;;;;5063357;28;20136;-61
2021/12/25 03:18:24;;;;;;;;;;;;;;;;;;5060413;28;20049;-61
2021/12/25 03:20:52;;;;;;;6.53;2.53;;;;;;;;;;5063333;28;19952;-61
2021/12/25 03:23:20;;;;;;;4.80;2.60;;;;;;;;;;5062631;28;20132;-61
2021/12/25 03:25:47;;;;;;;3.43;2.10;;;;;;;;;;5064473;28;20165;-61
2021/12/25 03:28:15;;;;;;;4.63;2.33;;;;;;;;;;5085926;28;20072;-61
2021/12/25 03:30:43;;;;;;;4.60;2.17;;;;;;;;;;5076331;28;20475;-61
2021/12/25 03:33:11;;;;;;;6.82;2.53;;;;;;;;;;5082116;28;20067;-61
2021/12/25 03:35:38;;;;;;;5.97;2.77;;;;;;;;;;5070815;28;20135;-61
2021/12/25 03:38:04;;;;;;;;;;;;;;;;;;5080111;28;20052;-61
2021/12/25 03:40:31;;;;;;;5.07;2.00;;;;;;;;;;5077803;28;20012;-61
2021/12/25 03:42:57;;;;;;;;;;;;;;;;;;5082911;28;20147;-61
2021/12/25 03:45:30;;;;;;;3.60;2.13;;;;;;;;;;5080719;28;20414;-61
2021/12/25 03:48:13;;;;;;;4.47;2.47;;;;;;;;;;5077352;28;20067;-61
2021/12/25 03:57:35;;;;;;;3.70;2.23;;;;;;;;;;5080057;28;20075;-61
2021/12/25 03:59:06;;;;;;;4.13;2.43;;;;;;;;;;5061683;28;20055;-61
2021/12/25 04:04:10;;;;;;;3.40;2.30;;;;;;;;;;5060087;28;20041;-61
2021/12/25 04:09:34;;;;;;;8.40;1.90;;;;;;;;;;5034185;28;20076;-61
2021/12/25 04:12:03;;;;;;;1.87;1.67;;;;;;;;;;5062489;28;20056;-60
2021/12/25 04:14:29;;;;;;;3.63;2.10;;;;;;;;;;5061481;28;20141;-61
2021/12/25 04:16:55;;;;;;;8.80;2.05;;;;;;;;;;5057027;28;20139;-61
2021/12/25 04:19:29;;;;;;;3.73;1.70;;;;;;;;;;5058743;28;20072;-61
2021/12/25 04:22:00;;;;;;;2.95;2.15;;;;;;;;;;5066444;28;20139;-61
2021/12/25 04:24:30;;;;;;;2.03;1.67;;;;;;;;;;5073185;28;20467;-60
2021/12/25 04:27:06;;;;;;;3.73;1.90;;;;;;;;;;5082040;28;20086;-61
2021/12/25 04:29:39;;;;;;;2.00;1.67;;;;;;;;;;5077471;28;20087;-60
2021/12/25 05:05:02;;;;;;;6.93;2.10;;;;;;;;;;5059910;28;20053;-61
2021/12/25 05:07:28;;;;;;;2.77;2.00;;;;;;;;;;5060579;28;20539;-61
2021/12/25 05:09:57;;;;;;;2.67;1.58;;;;;;;;;;5060504;28;20048;-61
2021/12/25 05:12:23;;;;;;;1.63;1.53;;;;;;;;;;5057149;28;20049;-60
2021/12/25 05:14:50;;;;;;;3.63;1.90;;;;;;;;;;5059523;28;20485;-61
2021/12/25 05:17:16;;;;;;;3.10;1.75;;;;;;;;;;5060648;28;20496;-60
2021/12/25 05:19:43;;;;;;;3.53;1.63;;;;;;;;;;5062870;28;20131;-61
2021/12/25 05:22:10;;;;;;;2.63;1.90;;;;;;;;;;5060757;28;20045;-61
2021/12/25 05:24:37;;;;;;;4.97;1.80;;;;;;;;;;5057456;28;20044;-60
2021/12/25 05:27:05;;;;;;;2.65;1.55;;;;;;;;;;5056017;28;20463;-61
2021/12/25 05:29:33;;;;;;;3.80;1.70;;;;;;;;;;5060759;28;20486;-61
2021/12/25 05:32:00;;;;;;;2.33;1.80;;;;;;;;;;5055000;28;20127;-61
2021/12/25 05:34:27;;;;;;;2.33;1.87;;;;;;;;;;5059295;28;20131;-61
2021/12/25 05:36:54;;;;;;;1.80;1.60;;;;;;;;;;5062583;28;20135;-61
2021/12/25 05:39:20;;;;;;;1.23;1.13;;;;;;;;;;5060533;28;20494;-60
2021/12/25 05:41:54;;;;;;;2.13;1.53;;;;;;;;;;5061358;28;20127;-61
2021/12/25 05:44:20;;;;;;;4.72;1.75;;;;;;;;;;5055839;28;20080;-61
2021/12/25 05:46:47;;;;;;;3.28;1.50;;;;;;;;;;5065785;28;20087;-61
2021/12/25 05:49:15;;;;;;;3.17;1.80;;;;;;;;;;5059222;28;20049;-61
2021/12/25 05:51:42;;;;;;;4.38;1.70;;;;;;;;;;5056324;28;20045;-61
2021/12/25 05:54:08;;;;;;;;;;;;;;;;;;5051444;28;20791;-61
2021/12/25 05:56:36;;;;;;;6.00;1.63;;;;;;;;;;5051067;28;19928;-61
2021/12/25 05:59:02;;;;;;;1.85;1.45;;;;;;;;;;5050912;28;20060;-61
2021/12/25 06:01:28;;;;;;;2.33;1.63;;;;;;;;;;5050679;28;20305;-61
2021/12/25 06:03:57;;;;;;;5.50;1.73;;;;;;;;;;5055806;28;20056;-61
2021/12/25 06:06:24;;;;;;;3.90;1.55;;;;;;;;;;5058297;28;20048;-61
2021/12/25 06:08:51;;;;;;;2.03;1.70;;;;;;;;;;5060719;28;20131;-61
2021/12/25 06:11:18;;;;;;;2.50;1.88;;;;;;;;;;5057322;28;20044;-61
2021/12/25 06:13:55;;;;;;;3.67;1.75;;;;;;;;;;5055978;28;20095;-61
2021/12/25 06:16:22;;;;;;;2.53;1.63;;;;;;;;;;5058780;28;20480;-61
2021/12/25 06:18:48;;;;;;;1.55;1.40;;;;;;;;;;5059056;28;20044;-61
2021/12/25 06:21:15;;;;;;;7.68;1.88;;;;;;;;;;5061015;28;20477;-61
2021/12/25 06:23:44;;;;;;;1.60;1.33;;;;;;;;;;5060751;28;20066;-61
2021/12/25 06:26:30;;;;;;;3.20;1.67;;;;;;;;;;5060719;28;20048;-62
2021/12/25 06:29:03;;;;;;;3.43;1.90;;;;;;;;;;5057236;28;20303;-61
2021/12/25 06:31:30;;;;;;;3.72;2.00;;;;;;;;;;5061288;28;20591;-62
2021/12/25 06:33:59;;;;;;;;;;;;;;;;;;5057550;28;20051;-61
2021/12/25 06:36:28;;;;;;;2.73;1.57;;;;;;;;;;5055306;28;19980;-61
2021/12/25 06:38:54;;;;;;;1.98;1.50;;;;;;;;;;5059048;28;20140;-61
2021/12/25 06:41:21;;;;;;;2.35;1.30;;;;;;;;;;5063186;28;20143;-61
2021/12/25 06:43:47;;;;;;;2.03;1.83;;;;;;;;;;5059532;28;20137;-61
2021/12/25 06:46:14;;;;;;;4.35;1.38;;;;;;;;;;5053565;28;20515;-61
2021/12/25 06:48:42;;;;;;;3.93;1.83;;;;;;;;;;5054951;28;20057;-61
2021/12/25 06:51:09;;;;;;;1.77;1.47;;;;;;;;;;5058737;28;20151;-61
2021/12/25 06:53:37;;;;;;;4.82;1.63;;;;;;;;;;5057015;28;20079;-61
2021/12/25 06:56:03;;;;;;;3.37;2.03;;;;;;;;;;5060547;28;20053;-60
2021/12/25 06:58:37;;;;;;;2.83;1.80;;;;;;;;;;5053457;28;20050;-61
2021/12/25 07:01:03;;;;;;;3.38;2.22;;;;;;;;;;5056283;28;20172;-61
2021/12/25 07:03:30;;;;;;;3.60;1.70;;;;;;;;;;5051034;28;20048;-61
2021/12/25 07:05:57;;;;;;;2.77;1.80;;;;;;;;;;5049691;28;20049;-61
2021/12/25 07:08:24;;;;;;;3.45;1.88;;;;;;;;;;5048523;28;20575;-60
2021/12/25 07:10:50;;;;;;;3.08;1.85;;;;;;;;;;5050545;28;20082;-61
2021/12/25 07:13:19;;;;;;;;;;;;;;;;;;5059039;28;20099;-61
2021/12/25 07:15:45;;;;;;;1.70;1.60;;;;;;;;;;5058250;28;20010;-60
2021/12/25 07:18:12;;;;;;;2.83;1.97;;;;;;;;;;5053288;28;20171;-60
2021/12/25 07:20:42;;;;;;;3.40;1.90;;;;;;;;;;5060716;28;20491;-61
2021/12/25 07:23:09;;;;;;;4.93;2.13;;;;;;;;;;5062901;28;20051;-60
2021/12/25 07:25:35;;;;;;;10.27;2.00;;;;;;;;;;5063011;28;20167;-61
2021/12/25 07:28:08;;;;;;;4.80;1.97;;;;;;;;;;5058526;28;20143;-61
2021/12/25 07:30:34;;;;;;;3.03;2.08;;;;;;;;;;5064118;28;20488;-61
2021/12/25 07:33:02;;;;;;;3.65;2.08;;;;;;;;;;5067975;28;20136;-61
2021/12/25 07:35:36;;;;;;;3.93;1.90;;;;;;;;;;5060644;28;20135;-61
2021/12/25 07:38:02;;;;;;;44.43;14.83;;;;;;;;;;5067159;28;20048;-61
2021/12/25 07:40:29;;;;;;;17.05;5.60;;;;;;;;;;5065890;28;20095;-61
2021/12/25 07:42:56;;;;;;;13.05;5.10;;;;;;;;;;5056828;28;20076;-61
2021/12/25 07:45:22;;;;;;;7.78;2.80;;;;;;;;;;5058766;28;20523;-60
2021/12/25 07:47:57;;;;;;;1.30;1.20;;;;;;;;;;5057061;28;20067;-61
2021/12/25 07:50:24;;;;;;;6.50;2.20;;;;;;;;;;5036959;28;20144;-60
2021/12/25 07:52:51;;;;;;;3.50;2.20;;;;;;;;;;5039968;28;20073;-61
2021/12/25 07:55:17;;;;;;;3.67;2.38;;;;;;;;;;5040071;28;20055;-61
2021/12/25 07:57:44;;;;;;;;;;;;;;;;;;5044058;28;20091;-61
2021/12/25 08:00:12;;;;;;;2.73;1.70;;;;;;;;;;5041272;28;20027;-60
2021/12/25 08:02:38;;;;;;;7.00;1.97;;;;;;;;;;5036410;28;20140;-60
2021/12/25 08:05:09;;;;;;;2.97;2.20;;;;;;;;;;5036180;28;20500;-61
2021/12/25 08:07:35;;;;;;;3.58;2.00;;;;;;;;;;5041367;28;20081;-61
2021/12/25 08:10:13;;;;;;;6.45;2.47;;;;;;;;;;5037302;28;20103;-61
2021/12/25 08:12:41;;;;;;;4.97;2.07;;;;;;;;;;5038762;28;20088;-61
2021/12/25 08:15:08;;;;;;;2.13;1.80;;;;;;;;;;5034131;28;20068;-60
2021/12/25 08:17:34;;;;;;;3.20;1.98;;;;;;;;;;5038605;28;20098;-60
2021/12/25 08:20:02;;;;;;;3.70;2.30;;;;;;;;;;5031040;28;20053;-61
2021/12/25 08:22:28;;;;;;;5.72;2.30;;;;;;;;;;5038556;28;20136;-61
2021/12/25 08:24:55;;;;;;;3.90;2.05;;;;;;;;;;5031881;28;20056;-60
2021/12/25 08:27:28;;;;;;;2.80;2.10;;;;;;;;;;5031209;28;20135;-61
2021/12/25 08:29:55;;;;;;;2.72;2.05;;;;;;;;;;5037233;28;20160;-60
2021/12/25 08:32:21;;;;;;;2.80;2.20;;;;;;;;;;5029672;28;20258;-60
2021/12/25 08:34:54;;;;;;;4.43;1.90;;;;;;;;;;5031437;28;20148;-60
2021/12/25 08:37:24;;;;;;;2.85;2.05;;;;;;;;;;5033066;28;20146;-61
2021/12/25 08:39:51;;;;;;;3.80;1.87;;;;;;;;;;5030421;28;20076;-60
2021/12/25 08:42:21;;;;;;;4.67;2.27;;;;;;;;;;5032798;28;20049;-60
2021/12/25 08:47:21;;;;;;;4.03;2.37;;;;;;;;;;5031440;28;20555;-61
2021/12/25 08:49:48;;;;;;;3.17;1.95;;;;;;;;;;5030724;28;22190;-60
2021/12/25 08:52:15;;;;;;;;;;;;;;;;;;5034748;28;20048;-61
2021/12/25 08:54:42;;;;;;;6.80;2.17;;;;;;;;;;5030133;28;20024;-60
2021/12/25 08:57:09;;;;;;;3.40;2.13;;;;;;;;;;5031788;28;20132;-61
2021/12/25 08:59:36;;;;;;;3.60;2.13;;;;;;;;;;5030589;28;20157;-60
2021/12/25 09:02:04;;;;;;;;;;;;;;;;;;5032666;28;20159;-60
2021/12/25 09:04:36;;;;;;;6.00;2.13;;;;;;;;;;5032217;28;19931;-60
2021/12/25 09:07:03;;;;;;;17.37;5.80;;;;;;;;;;5040361;28;20063;-60
2021/12/25 09:09:29;;;;;;;18.75;4.63;;;;;;;;;;5031520;28;20525;-61
2021/12/25 09:11:56;;;;;;;13.50;4.75;;;;;;;;;;5030600;28;20136;-60
2021/12/25 09:14:22;;;;;;;5.15;2.75;;;;;;;;;;5031564;28;20053;-61
2021/12/25 09:16:49;;;;;;;4.85;2.22;;;;;;;;;;5029267;28;20187;-61
2021/12/25 09:19:22;;;;;;;14.03;5.47;;;;;;;;;;5031542;28;20045;-61
2021/12/25 09:21:49;;;;;;;37.42;11.88;;;;;;;;;;5042465;28;20049;-61
2021/12/25 09:24:15;;;;;;;12.65;5.28;;;;;;;;;;5041527;28;20151;-60
2021/12/25 09:26:45;;;;;;;6.43;3.20;;;;;;;;;;5036314;28;20104;-61
2021/12/25 09:29:11;;;;;;;4.47;2.40;;;;;;;;;;5036448;28;20419;-61
2021/12/25 09:31:38;;;;;;;5.40;2.47;;;;;;;;;;5038033;28;20084;-61
2021/12/25 09:34:04;;;;;;;5.38;2.45;;;;;;;;;;5036232;28;20159;-61
2021/12/25 09:36:32;;;;;;;5.75;2.30;;;;;;;;;;5034667;28;20067;-61
2021/12/25 09:38:58;;;;;;;;;;;;;;;;;;5042319;28;20087;-61
2021/12/25 09:41:24;;;;;;;5.03;2.30;;;;;;;;;;5038989;28;19959;-61
2021/12/25 09:43:51;;;;;;;7.03;2.42;;;;;;;;;;5040375;28;20080;-61
2021/12/25 09:46:20;;;;;;;2.72;1.85;;;;;;;;;;5041645;28;20136;-61
2021/12/25 09:48:50;;;;;;;4.13;2.60;;;;;;;;;;5061054;28;20084;-61
2021/12/25 09:51:17;;;;;;;5.27;2.57;;;;;;;;;;5078669;28;20136;-61
2021/12/25 09:53:54;;;;;;;6.20;2.40;;;;;;;;;;5077595;28;20211;-61
2021/12/25 09:56:21;;;;;;;;;;;;;;;;;;5076023;28;20544;-61
2021/12/25 09:58:47;;;;;;;10.73;5.20;;;;;;;;;;5077625;28;20375;-61
2021/12/25 10:01:30;;;;;;;7.10;2.65;;;;;;;;;;5078958;28;20131;-61
2021/12/25 10:04:00;;;;;;;6.40;2.83;;;;;;;;;;5074333;28;20121;-61
2021/12/25 10:06:27;;;;;;;8.43;3.10;;;;;;;;;;5078874;28;20048;-61
2021/12/25 10:08:54;;;;;;;;;;;;;;;;;;5078790;28;20075;-61
2021/12/25 10:11:30;;;;;;;8.23;3.53;;;;;;;;;;5075916;28;20010;-61
2021/12/25 10:13:56;;;;;;;7.47;2.67;;;;;;;;;;5067322;28;20052;-61
2021/12/25 10:16:24;;;;;;;4.65;3.22;;;;;;;;;;5078899;28;20139;-61
2021/12/25 10:18:52;;;;;;;9.73;3.77;;;;;;;;;;5075949;28;20510;-61
2021/12/25 10:21:20;;;;;;;5.73;3.27;;;;;;;;;;5059254;28;20579;-61
2021/12/25 10:24:04;;;;;;;6.57;3.10;;;;;;;;;;5076225;28;20159;-61
2021/12/25 10:26:36;;;;;;;7.13;2.67;;;;;;;;;;5071441;28;20142;-61
2021/12/25 10:29:03;;;;;;;;;;;;;;;;;;5072401;28;20047;-61
2021/12/25 10:31:31;;;;;;;3.97;2.53;;;;;;;;;;5075720;28;19987;-61
2021/12/25 10:33:58;;;;;;;11.73;2.37;;;;;;;;;;5071838;28;20484;-61
2021/12/25 10:36:29;;;;;;;3.90;1.58;;;;;;;;;;5078296;28;20075;-61
2021/12/25 10:38:57;;;;;;;5.40;3.43;;;;;;;;;;5076604;28;20087;-61
2021/12/25 10:41:33;;;;;;;6.77;3.20;;;;;;;;;;5078641;28;20080;-61
2021/12/25 10:44:17;;;;;;;5.50;2.70;;;;;;;;;;5076439;28;20127;-61
2021/12/25 10:46:46;;;;;;;8.63;3.10;;;;;;;;;;5078257;28;20131;-61
2021/12/25 10:49:13;;;;;;;7.43;3.60;;;;;;;;;;5077733;28;20621;-61
2021/12/25 10:51:40;;;;;;;5.55;4.22;;;;;;;;;;5079123;28;20127;-61
2021/12/25 10:54:10;;;;;;;22.35;8.32;;;;;;;;;;5084908;28;20135;-61
2021/12/25 10:56:38;;;;;;;117.07;28.17;;;;;;;;;;5083523;28;20048;-61
2021/12/25 10:59:04;;;;;;;;;;;;;;;;;;5083207;28;20183;-61
2021/12/25 11:01:40;;;;;;;21.93;7.80;;;;;;;;;;5060271;28;19928;-61
2021/12/25 11:04:24;;;;;;;12.03;4.90;;;;;;;;;;5061057;28;20094;-61
2021/12/25 11:06:50;;;;;;;13.07;4.43;;;;;;;;;;5062724;28;20464;-61
2021/12/25 11:09:17;;;;;;;9.45;3.92;;;;;;;;;;5062531;28;20143;-61
2021/12/25 11:11:43;;;;;;;6.50;2.70;;;;;;;;;;5063836;28;22223;-61
2021/12/25 11:14:13;;;;;;;4.13;2.60;;;;;;;;;;5063202;28;20143;-61
2021/12/25 11:16:40;;;;;;;5.25;2.50;;;;;;;;;;5058067;28;20115;-61
2021/12/25 11:19:10;;;;;;;5.77;2.97;;;;;;;;;;5062607;28;20493;-61
2021/12/25 11:21:49;;;;;;;7.53;2.77;;;;;;;;;;5046261;28;20411;-61
2021/12/25 11:24:18;;;;;;;7.13;2.57;;;;;;;;;;5063664;28;20064;-61
2021/12/25 11:26:50;;;;;;;12.17;2.90;;;;;;;;;;5058756;28;20136;-61
2021/12/25 11:29:18;;;;;;;10.73;2.90;;;;;;;;;;5061825;28;20465;-61
2021/12/25 11:31:47;;;;;;;6.93;2.90;;;;;;;;;;5081411;28;20573;-61
2021/12/25 11:34:15;;;;;;;6.17;2.70;;;;;;;;;;5081461;28;20127;-61
2021/12/25 11:36:42;;;;;;;5.30;2.90;;;;;;;;;;5082337;28;20062;-61
2021/12/25 11:39:09;;;;;;;10.43;3.40;;;;;;;;;;5077979;28;20571;-61
2021/12/25 11:41:37;;;;;;;11.40;3.10;;;;;;;;;;5071469;28;20746;-61
2021/12/25 11:44:07;;;;;;;7.37;2.73;;;;;;;;;;5073434;28;20139;-61
2021/12/25 11:46:41;;;;;;;5.30;2.50;;;;;;;;;;5078290;28;20139;-61
2021/12/25 11:49:10;;;;;;;5.93;2.63;;;;;;;;;;5084182;28;20059;-61
2021/12/25 11:51:40;;;;;;;9.37;3.50;;;;;;;;;;5082668;28;20048;-61
2021/12/25 11:54:58;;;;;;;11.00;3.93;;;;;;;;;;5078961;28;20075;-61
2021/12/25 11:57:46;;;;;;;7.07;3.10;;;;;;;;;;5075658;28;20156;-61
2021/12/25 12:00:13;;;;;;;;;;;;;;;;;;5074075;28;20451;-61
2021/12/25 12:02:43;;;;;;;10.70;3.37;;;;;;;;;;5056136;28;19924;-62
2021/12/25 12:05:17;;;;;;;7.63;3.00;;;;;;;;;;5057085;28;20045;-61
2021/12/25 12:07:57;;;;;;;9.20;2.90;;;;;;;;;;5052829;28;20534;-62
2021/12/25 12:10:56;;;;;;;7.60;3.30;;;;;;;;;;5057833;28;20568;-62
2021/12/25 12:13:22;;;;;;;;;;;;;;;;;;5043190;28;20083;-62
2021/12/25 12:15:50;;;;;;;6.73;2.93;;;;;;;;;;5083336;28;19970;-61
2021/12/25 12:18:33;;;;;;;8.53;2.83;;;;;;;;;;5079192;28;20110;-61
2021/12/25 12:21:11;;;;;;;8.40;2.87;;;;;;;;;;5081739;28;20055;-61
2021/12/25 12:26:11;;;;;;;5.50;2.90;;;;;;;;;;5081609;28;20055;-61
2021/12/25 12:28:55;;;;;;;5.83;3.07;;;;;;;;;;5082123;28;20110;-61
2021/12/25 12:31:40;;;;;;;9.20;3.37;;;;;;;;;;5078196;28;20048;-61
2021/12/25 12:34:25;;;;;;;6.13;3.30;;;;;;;;;;5071018;28;20135;-61
2021/12/25 12:36:52;;;;;;;8.33;4.97;;;;;;;;;;5079078;28;20134;-62
2021/12/25 12:39:19;;;;;;;7.03;2.93;;;;;;;;;;5077001;28;20071;-61
2021/12/25 12:41:53;;;;;;;13.32;7.18;;;;;;;;;;5081549;28;20329;-61
2021/12/25 12:44:28;;;;;;;9.98;3.95;;;;;;;;;;5060284;28;20136;-61
2021/12/25 12:46:59;;;;;;;10.03;3.10;;;;;;;;;;5057217;28;20080;-62
2021/12/25 12:49:33;;;;;;;9.10;3.20;;;;;;;;;;5060498;28;20469;-61
2021/12/25 12:52:15;;;;;;;10.43;3.37;;;;;;;;;;5052900;28;20638;-61
2021/12/25 12:54:47;;;;;;;4.47;2.37;;;;;;;;;;5058244;28;20127;-61
2021/12/25 12:57:18;;;;;;;7.87;2.90;;;;;;;;;;5059096;28;20072;-61
2021/12/25 12:59:46;;;;;;;9.13;3.63;;;;;;;;;;5054081;28;20135;-61
2021/12/25 13:02:13;;;;;;;19.37;7.93;;;;;;;;;;5060201;28;20130;-62
2021/12/25 13:04:43;;;;;;;13.02;5.43;;;;;;;;;;5059049;28;20052;-61
2021/12/25 13:07:19;;;;;;;16.65;6.60;;;;;;;;;;5052527;28;20170;-61
2021/12/25 13:09:52;;;;;;;10.27;3.00;;;;;;;;;;5039168;28;20799;-61
2021/12/25 13:12:44;;;;;;;7.93;3.87;;;;;;;;;;5053870;28;20139;-62
2021/12/25 13:15:18;;;;;;;17.73;3.10;;;;;;;;;;5051422;28;20086;-63
2021/12/25 13:17:50;;;;;;;10.73;3.70;;;;;;;;;;5079371;28;20123;-61
2021/12/25 13:20:16;;;;;;;7.83;3.43;;;;;;;;;;5086238;28;20766;-62
2021/12/25 13:22:43;;;;;;;7.05;2.65;;;;;;;;;;5079960;28;20899;-61
2021/12/25 13:25:11;;;;;;;6.93;2.85;;;;;;;;;;5081036;28;20135;-61
2021/12/25 13:27:37;;;;;;;12.03;3.80;;;;;;;;;;5076607;28;20076;-61
2021/12/25 13:30:10;;;;;;;7.17;3.20;;;;;;;;;;5079263;28;20150;-62
2021/12/25 13:32:37;;;;;;;5.37;3.10;;;;;;;;;;5076967;28;20350;-61
2021/12/25 13:35:03;;;;;;;7.65;2.92;;;;;;;;;;5073170;28;20072;-61
2021/12/25 13:37:30;;;;;;;6.10;2.60;;;;;;;;;;5081876;28;20075;-61
2021/12/25 13:39:58;;;;;;;12.83;3.57;;;;;;;;;;5075221;28;20082;-62
2021/12/25 13:42:24;;;;;;;8.75;3.03;;;;;;;;;;5079323;28;20052;-62
2021/12/25 13:44:51;;;;;;;11.07;4.22;;;;;;;;;;5074110;28;20135;-61
2021/12/25 13:47:22;;;;;;;7.20;3.20;;;;;;;;;;5075445;28;20059;-61
2021/12/25 13:49:57;;;;;;;6.70;2.90;;;;;;;;;;5040781;28;20068;-61
2021/12/25 13:52:25;;;;;;;8.37;3.23;;;;;;;;;;5034892;28;20505;-61
2021/12/25 13:54:54;;;;;;;12.43;3.83;;;;;;;;;;5044124;28;20144;-61
2021/12/25 13:57:22;;;;;;;10.60;2.90;;;;;;;;;;5033867;28;20485;-61
2021/12/25 13:59:57;;;;;;;9.27;3.80;;;;;;;;;;5042455;28;20080;-62
2021/12/25 14:02:24;;;;;;;11.93;3.83;;;;;;;;;;5041398;28;20405;-62
2021/12/25 14:04:52;;;;;;;10.40;4.23;;;;;;;;;;5038906;28;20077;-62
2021/12/25 14:07:23;;;;;;;9.33;4.23;;;;;;;;;;5038392;28;20080;-61
2021/12/25 14:10:00;;;;;;;13.87;5.37;;;;;;;;;;5043884;28;20080;-62
2021/12/25 14:12:29;;;;;;;16.47;4.50;;;;;;;;;;5035054;28;20131;-61
2021/12/25 14:14:56;;;;;;;11.32;5.47;;;;;;;;;;5040143;28;20095;-62
2021/12/25 14:17:23;;;;;;;;;;;;;;;;;;5039350;28;20132;-61
2021/12/25 14:20:03;;;;;;;8.73;3.47;;;;;;;;;;5034007;28;19925;-61
2021/12/25 14:22:30;;;;;;;14.23;3.50;;;;;;;;;;5034947;28;20049;-61
2021/12/25 14:25:05;;;;;;;7.67;3.50;;;;;;;;;;5037103;28;20508;-61
2021/12/25 14:27:33;;;;;;;7.53;2.93;;;;;;;;;;5037348;28;20052;-61
2021/12/25 14:30:08;;;;;;;6.22;2.92;;;;;;;;;;5040401;28;20423;-61
2021/12/25 14:32:47;;;;;;;9.20;3.50;;;;;;;;;;5041559;28;20079;-61
2021/12/25 14:35:16;;;;;;;10.30;3.00;;;;;;;;;;5040310;28;20042;-61
2021/12/25 14:37:43;;;;;;;7.83;3.40;;;;;;;;;;5040749;28;20627;-62
2021/12/25 14:40:19;;;;;;;7.30;3.38;;;;;;;;;;5040202;28;20588;-61
2021/12/25 14:42:48;;;;;;;8.07;2.88;;;;;;;;;;5048861;28;20136;-62
2021/12/25 14:45:15;;;;;;;13.20;3.60;;;;;;;;;;5044102;28;20084;-61
2021/12/25 14:47:46;;;;;;;14.10;3.77;;;;;;;;;;5046043;28;20080;-62
2021/12/25 14:50:19;;;;;;;10.33;3.20;;;;;;;;;;5061743;28;20088;-61
2021/12/25 14:52:45;;;;;;;12.13;4.20;;;;;;;;;;5058659;28;20139;-61
2021/12/25 14:55:21;;;;;;;16.33;3.92;;;;;;;;;;5061740;28;20088;-61
2021/12/25 14:57:47;;;;;;;13.03;3.67;;;;;;;;;;5084401;28;20155;-61
2021/12/25 15:00:22;;;;;;;7.87;3.07;;;;;;;;;;5085807;28;20047;-61
2021/12/25 15:02:49;;;;;;;13.97;5.23;;;;;;;;;;5080309;28;20131;-61
2021/12/25 15:05:17;;;;;;;15.87;5.03;;;;;;;;;;5082355;28;20040;-61
2021/12/25 15:07:44;;;;;;;30.83;9.27;;;;;;;;;;5084866;28;20132;-61
2021/12/25 15:10:10;;;;;;;215.68;54.38;;;;;;;;;;5079680;28;20233;-61
2021/12/25 15:12:37;;;;;;;38.72;9.57;;;;;;;;;;5072076;28;20052;-61
2021/12/25 15:15:06;;;;;;;11.63;3.80;;;;;;;;;;5076565;28;20144;-61
2021/12/25 15:17:33;;;;;;;48.10;12.07;;;;;;;;;;5079039;28;20431;-61
2021/12/25 15:20:26;;;;;;;177.95;41.85;;;;;;;;;;5080775;28;20087;-61
2021/12/25 15:22:55;;;;;;;146.07;38.53;;;;;;;;;;5078737;28;20132;-61
2021/12/25 15:25:25;;;;;;;55.53;16.90;;;;;;;;;;5077644;28;20477;-61
2021/12/25 15:27:53;;;;;;;41.57;11.80;;;;;;;;;;5076848;28;20133;-61
2021/12/25 15:30:21;;;;;;;45.80;13.03;;;;;;;;;;5083291;28;20052;-61
2021/12/25 15:32:49;;;;;;;25.77;14.10;;;;;;;;;;5077318;28;20052;-61
2021/12/25 15:35:16;;;;;;;16.57;6.17;;;;;;;;;;5081475;28;20122;-61
2021/12/25 15:37:45;;;;;;;19.17;5.10;;;;;;;;;;5087813;28;20056;-61
2021/12/25 15:40:18;;;;;;;18.10;5.77;;;;;;;;;;5076689;28;20051;-62
2021/12/25 15:42:45;;;;;;;19.03;4.23;;;;;;;;;;5058728;28;20147;-61
2021/12/25 15:45:12;;;;;;;11.10;3.97;;;;;;;;;;5077742;28;20091;-61
2021/12/25 15:47:38;;;;;;;13.85;4.05;;;;;;;;;;5071523;28;20044;-62
2021/12/25 15:50:07;;;;;;;17.47;4.00;;;;;;;;;;5040044;28;20073;-61
2021/12/25 15:52:34;;;;;;;9.30;3.28;;;;;;;;;;5036148;28;20087;-61
2021/12/25 15:55:00;;;;;;;10.97;3.63;;;;;;;;;;5044863;28;20144;-61
2021/12/25 15:57:28;;;;;;;7.65;3.47;;;;;;;;;;5039320;28;20732;-61
2021/12/25 15:59:54;;;;;;;23.17;7.30;;;;;;;;;;5036905;28;20838;-61
2021/12/25 16:02:23;;;;;;;15.57;5.10;;;;;;;;;;5034146;28;20085;-61
2021/12/25 16:04:50;;;;;;;12.27;3.93;;;;;;;;;;5041543;28;20048;-61
2021/12/25 16:07:16;;;;;;;13.63;4.55;;;;;;;;;;5040812;28;20087;-61
2021/12/25 16:09:43;;;;;;;26.42;7.43;;;;;;;;;;5037348;28;20081;-62
2021/12/25 16:12:09;;;;;;;12.52;4.40;;;;;;;;;;5044882;28;20049;-61
2021/12/25 16:14:36;;;;;;;20.52;5.20;;;;;;;;;;5038897;28;20107;-61
2021/12/25 16:17:03;;;;;;;29.20;8.45;;;;;;;;;;5039616;28;20807;-61
2021/12/25 16:19:30;;;;;;;17.50;7.50;;;;;;;;;;5036923;28;20148;-61